Time;durP1;ratioP1;P1;durP2;ratioP2;P2;SDS_P1;SDS_P2;PMS_P1;PMS_P2;Temp;Humidity;BMP_temperature;BMP_pressure;BME280_temperature;BME280_humidity;BME280_pressure;Samples;Min_cycle;Max_cycle;Signal;HPM_P1;HPM_P2
2022/07/29 00:00:32;;;;;;;3.60;2.45;;;;;;;;;;2064793;28;20204;-63
2022/07/29 00:01:33;;;;;;;2.10;1.83;;;;;;;;;;2070004;28;20158;-62
2022/07/29 00:02:33;;;;;;;3.35;2.10;;;;;;;;;;2077428;28;20555;-61
2022/07/29 00:03:33;;;;;;;2.53;2.20;;;;;;;;;;2075615;28;20181;-60
2022/07/29 00:04:34;;;;;;;2.65;2.10;;;;;;;;;;2074179;28;20176;-63
2022/07/29 00:05:35;;;;;;;2.75;2.55;;;;;;;;;;2075293;28;20173;-62
2022/07/29 00:06:35;;;;;;;3.25;1.95;;;;;;;;;;2076037;28;20199;-59
2022/07/29 00:07:36;;;;;;;2.15;1.95;;;;;;;;;;2074282;28;20570;-60
2022/07/29 00:08:36;;;;;;;3.67;1.92;;;;;;;;;;2077776;28;20265;-63
2022/07/29 00:09:36;;;;;;;3.38;2.03;;;;;;;;;;2078592;28;20243;-63
2022/07/29 00:10:37;;;;;;;5.97;2.22;;;;;;;;;;2079054;28;20697;-61
2022/07/29 00:11:37;;;;;;;3.28;2.30;;;;;;;;;;2079602;28;20184;-62
2022/07/29 00:12:38;;;;;;;1.98;1.83;;;;;;;;;;2078106;28;20632;-62
2022/07/29 00:13:38;;;;;;;3.45;2.28;;;;;;;;;;2078820;28;20181;-64
2022/07/29 00:14:39;;;;;;;2.13;1.90;;;;;;;;;;2077103;28;20180;-61
2022/07/29 00:15:39;;;;;;;3.28;2.60;;;;;;;;;;2070839;28;20185;-61
2022/07/29 00:16:40;;;;;;;2.40;1.80;;;;;;;;;;2072162;28;20210;-62
2022/07/29 00:17:40;;;;;;;2.25;1.98;;;;;;;;;;2082753;28;20192;-63
2022/07/29 00:18:40;;;;;;;2.28;2.08;;;;;;;;;;2077410;28;20173;-63
2022/07/29 00:19:41;;;;;;;3.10;2.47;;;;;;;;;;2075515;28;20705;-63
2022/07/29 00:20:41;;;;;;;3.03;2.35;;;;;;;;;;2074137;28;20228;-62
2022/07/29 00:21:41;;;;;;;2.63;2.05;;;;;;;;;;2083847;28;20165;-63
2022/07/29 00:22:42;;;;;;;2.42;2.22;;;;;;;;;;2081351;28;20176;-63
2022/07/29 00:23:42;;;;;;;4.07;2.40;;;;;;;;;;2083140;28;20190;-63
2022/07/29 00:24:43;;;;;;;2.72;2.28;;;;;;;;;;2080158;28;20175;-62
2022/07/29 00:25:43;;;;;;;3.30;2.40;;;;;;;;;;2083542;28;20185;-64
2022/07/29 00:26:43;;;;;;;2.22;2.00;;;;;;;;;;2082671;28;20200;-63
2022/07/29 00:27:45;;;;;;;3.65;2.47;;;;;;;;;;2078833;28;20172;-63
2022/07/29 00:28:45;;;;;;;2.28;2.00;;;;;;;;;;2081837;28;20204;-59
2022/07/29 00:29:46;;;;;;;3.22;2.42;;;;;;;;;;2085075;28;20621;-63
2022/07/29 00:30:46;;;;;;;3.20;2.33;;;;;;;;;;2086501;28;20176;-61
2022/07/29 00:31:46;;;;;;;5.63;2.25;;;;;;;;;;2085484;28;20227;-62
2022/07/29 00:32:47;;;;;;;6.55;2.20;;;;;;;;;;2087070;28;20283;-61
2022/07/29 00:33:47;;;;;;;3.47;2.38;;;;;;;;;;2085313;28;20174;-62
2022/07/29 00:36:06;;;;;;;2.97;2.15;;;;;;;;;;2082633;28;20197;-63
2022/07/29 00:37:06;;;;;;;3.20;2.00;;;;;;;;;;2086622;28;20175;-62
2022/07/29 00:38:07;;;;;;;2.60;1.88;;;;;;;;;;2083601;28;20203;-63
2022/07/29 00:39:07;;;;;;;3.85;2.20;;;;;;;;;;2081851;28;20180;-62
2022/07/29 00:40:08;;;;;;;3.92;2.10;;;;;;;;;;2079680;28;20169;-63
2022/07/29 00:41:08;;;;;;;2.65;2.17;;;;;;;;;;2073331;28;20165;-63
2022/07/29 00:42:09;;;;;;;3.42;2.22;;;;;;;;;;2071437;28;20180;-63
2022/07/29 00:43:10;;;;;;;3.22;2.25;;;;;;;;;;2075951;28;20165;-62
2022/07/29 00:44:11;;;;;;;2.47;2.28;;;;;;;;;;2074581;28;20260;-63
2022/07/29 00:45:11;;;;;;;1.95;1.85;;;;;;;;;;2083595;28;20172;-62
2022/07/29 00:46:12;;;;;;;2.92;2.20;;;;;;;;;;2083623;28;20184;-63
2022/07/29 00:47:12;;;;;;;2.25;2.10;;;;;;;;;;2085720;28;20172;-63
2022/07/29 00:48:13;;;;;;;2.22;2.03;;;;;;;;;;2084996;28;20238;-63
2022/07/29 00:49:13;;;;;;;2.30;2.10;;;;;;;;;;2081513;28;20181;-63
2022/07/29 00:50:13;;;;;;;3.15;2.25;;;;;;;;;;2085498;28;20176;-63
2022/07/29 00:51:14;;;;;;;3.47;2.55;;;;;;;;;;2083832;28;20172;-62
2022/07/29 00:52:15;;;;;;;2.70;2.00;;;;;;;;;;2082442;28;20211;-63
2022/07/29 00:53:15;;;;;;;2.45;2.25;;;;;;;;;;2082696;28;20609;-63
2022/07/29 00:54:16;;;;;;;2.53;2.33;;;;;;;;;;2081959;28;20192;-63
2022/07/29 00:55:16;;;;;;;3.67;2.35;;;;;;;;;;2082486;28;20203;-63
2022/07/29 00:56:18;;;;;;;9.32;2.33;;;;;;;;;;2081943;28;20201;-63
2022/07/29 00:57:18;;;;;;;3.95;2.45;;;;;;;;;;2079359;28;20195;-64
2022/07/29 00:58:19;;;;;;;3.10;2.90;;;;;;;;;;2079780;28;20181;-61
2022/07/29 00:59:19;;;;;;;2.10;2.00;;;;;;;;;;2077673;28;20173;-63
2022/07/29 01:00:21;;;;;;;2.88;2.03;;;;;;;;;;2073681;28;20169;-62
2022/07/29 01:01:22;;;;;;;3.00;2.47;;;;;;;;;;2078340;28;20211;-62
2022/07/29 01:02:22;;;;;;;2.40;2.20;;;;;;;;;;2076825;28;20196;-62
2022/07/29 01:03:23;;;;;;;6.28;2.40;;;;;;;;;;2078573;28;20170;-64
2022/07/29 01:04:23;;;;;;;5.18;2.35;;;;;;;;;;2077923;28;20386;-61
2022/07/29 01:05:25;;;;;;;3.35;2.00;;;;;;;;;;2077985;28;20181;-62
2022/07/29 01:06:25;;;;;;;3.85;2.38;;;;;;;;;;2078683;28;20172;-62
2022/07/29 01:07:27;;;;;;;2.60;2.00;;;;;;;;;;2078389;28;20180;-62
2022/07/29 01:08:27;;;;;;;6.30;2.55;;;;;;;;;;2079693;28;20616;-60
2022/07/29 01:09:28;;;;;;;2.85;2.15;;;;;;;;;;2078917;28;20184;-62
2022/07/29 01:10:29;;;;;;;3.05;2.17;;;;;;;;;;2069364;28;20518;-65
2022/07/29 01:11:29;;;;;;;3.30;2.20;;;;;;;;;;2070319;28;20228;-62
2022/07/29 01:12:33;;;;;;;2.30;2.10;;;;;;;;;;2060894;28;20166;-62
2022/07/29 01:13:33;;;;;;;4.72;2.45;;;;;;;;;;2070846;28;20191;-62
2022/07/29 01:14:34;;;;;;;3.45;2.10;;;;;;;;;;2077388;28;20172;-63
2022/07/29 01:15:41;;;;;;;4.50;2.40;;;;;;;;;;2077807;28;20169;-62
2022/07/29 01:16:45;;;;;;;2.53;2.33;;;;;;;;;;2074228;28;20189;-63
2022/07/29 01:17:55;;;;;;;2.90;2.40;;;;;;;;;;2073713;28;20214;-63
2022/07/29 01:19:00;;;;;;;4.63;2.15;;;;;;;;;;2076102;28;20189;-61
2022/07/29 01:20:01;;;;;;;3.15;2.00;;;;;;;;;;2067681;28;20580;-63
2022/07/29 01:21:23;;;;;;;3.13;2.63;;;;;;;;;;2070940;28;20188;-62
2022/07/29 01:22:26;;;;;;;2.47;2.22;;;;;;;;;;2073784;28;20168;-60
2022/07/29 01:23:27;;;;;;;2.42;2.22;;;;;;;;;;2079137;28;20161;-62
2022/07/29 01:24:32;;;;;;;3.72;2.30;;;;;;;;;;2077078;28;20172;-61
2022/07/29 01:25:38;;;;;;;3.72;2.00;;;;;;;;;;2077710;28;20223;-59
2022/07/29 01:26:58;;;;;;;4.95;2.83;;;;;;;;;;2077297;28;20178;-58
2022/07/29 01:28:05;;;;;;;4.05;2.63;;;;;;;;;;2073340;28;20252;-62
2022/07/29 01:29:24;;;;;;;3.53;2.22;;;;;;;;;;2076106;28;20269;-59
2022/07/29 01:30:25;;;;;;;2.50;2.30;;;;;;;;;;2074681;28;20176;-61
2022/07/29 01:31:30;;;;;;;2.75;2.50;;;;;;;;;;2078516;28;20208;-60
2022/07/29 01:32:35;;;;;;;3.40;2.20;;;;;;;;;;2077584;28;20161;-62
2022/07/29 01:33:50;;;;;;;5.10;2.47;;;;;;;;;;2070152;28;20178;-60
2022/07/29 01:34:54;;;;;;;2.42;1.98;;;;;;;;;;2069227;28;20165;-60
2022/07/29 01:35:54;;;;;;;3.80;2.28;;;;;;;;;;2068337;28;20569;-62
2022/07/29 01:37:00;;;;;;;2.28;2.10;;;;;;;;;;2069483;28;20189;-61
2022/07/29 01:38:05;;;;;;;5.75;2.55;;;;;;;;;;2063935;28;20200;-62
2022/07/29 01:39:08;;;;;;;2.10;2.00;;;;;;;;;;2070820;28;20181;-60
2022/07/29 01:40:13;;;;;;;3.28;1.75;;;;;;;;;;2077073;28;20642;-59
2022/07/29 01:41:16;;;;;;;2.53;2.30;;;;;;;;;;2078491;28;20168;-62
2022/07/29 01:42:23;;;;;;;2.60;2.10;;;;;;;;;;2078176;28;20185;-60
2022/07/29 01:43:31;;;;;;;2.45;2.17;;;;;;;;;;2076438;28;20177;-62
2022/07/29 01:44:34;;;;;;;2.97;2.60;;;;;;;;;;2075720;28;20255;-62
2022/07/29 01:45:40;;;;;;;3.08;2.15;;;;;;;;;;2078951;28;20168;-63
2022/07/29 01:46:43;;;;;;;2.78;2.53;;;;;;;;;;2074105;28;20688;-62
2022/07/29 01:48:00;;;;;;;2.85;2.03;;;;;;;;;;2077747;28;20172;-62
2022/07/29 01:49:08;;;;;;;2.50;2.30;;;;;;;;;;2076097;28;20215;-62
2022/07/29 01:50:11;;;;;;;3.60;2.30;;;;;;;;;;2077082;28;20587;-60
2022/07/29 01:51:14;;;;;;;5.40;2.28;;;;;;;;;;2078170;28;20172;-62
2022/07/29 01:52:44;;;;;;;2.88;2.22;;;;;;;;;;2069110;28;20207;-61
2022/07/29 01:53:47;;;;;;;2.60;2.40;;;;;;;;;;2061157;28;20548;-62
2022/07/29 01:54:50;;;;;;;2.03;1.70;;;;;;;;;;2077691;28;20188;-61
2022/07/29 01:55:51;;;;;;;3.67;2.63;;;;;;;;;;2077255;28;20184;-61
2022/07/29 01:56:55;;;;;;;4.13;2.20;;;;;;;;;;2069950;28;20717;-62
2022/07/29 01:57:56;;;;;;;3.05;2.17;;;;;;;;;;2068410;28;20261;-61
2022/07/29 01:58:57;;;;;;;3.97;2.15;;;;;;;;;;2079269;28;20629;-63
2022/07/29 01:59:59;;;;;;;4.30;2.20;;;;;;;;;;2075051;28;20232;-62
2022/07/29 02:01:01;;;;;;;2.95;2.13;;;;;;;;;;2077949;28;20206;-62
2022/07/29 02:02:02;;;;;;;3.33;2.30;;;;;;;;;;2073494;28;20250;-62
2022/07/29 02:03:05;;;;;;;3.65;2.38;;;;;;;;;;2070751;28;20667;-61
2022/07/29 02:04:07;;;;;;;2.85;2.45;;;;;;;;;;2067315;28;20173;-62
2022/07/29 02:05:09;;;;;;;3.00;2.17;;;;;;;;;;2078492;28;20459;-61
2022/07/29 02:06:10;;;;;;;2.47;2.13;;;;;;;;;;2076669;28;20585;-61
2022/07/29 02:07:13;;;;;;;3.33;2.25;;;;;;;;;;2078385;28;20712;-62
2022/07/29 02:08:15;;;;;;;2.30;2.10;;;;;;;;;;2077778;28;20204;-62
2022/07/29 02:09:15;;;;;;;3.83;2.20;;;;;;;;;;2079441;28;20190;-62
2022/07/29 02:10:18;;;;;;;4.15;2.20;;;;;;;;;;2078866;28;20191;-60
2022/07/29 02:11:19;;;;;;;2.83;2.38;;;;;;;;;;2077558;28;20532;-61
2022/07/29 02:12:20;;;;;;;3.58;2.15;;;;;;;;;;2078992;28;20196;-62
2022/07/29 02:13:23;;;;;;;3.05;2.60;;;;;;;;;;2078227;28;20602;-61
2022/07/29 02:14:24;;;;;;;2.47;2.28;;;;;;;;;;2074816;28;20648;-61
2022/07/29 02:15:25;;;;;;;2.13;2.00;;;;;;;;;;2080230;28;20180;-62
2022/07/29 02:16:26;;;;;;;2.65;2.13;;;;;;;;;;2076073;28;20165;-61
2022/07/29 02:17:35;;;;;;;2.67;2.20;;;;;;;;;;2078361;28;20666;-62
2022/07/29 02:18:37;;;;;;;2.78;2.30;;;;;;;;;;2077610;28;20160;-61
2022/07/29 02:19:37;;;;;;;3.22;2.22;;;;;;;;;;2079128;28;20200;-62
2022/07/29 02:20:39;;;;;;;4.68;2.10;;;;;;;;;;2078263;28;20185;-60
2022/07/29 02:21:40;;;;;;;3.35;2.30;;;;;;;;;;2078146;28;20176;-64
2022/07/29 02:22:40;;;;;;;5.03;2.30;;;;;;;;;;2077954;28;20204;-62
2022/07/29 02:23:42;;;;;;;3.65;2.20;;;;;;;;;;2075493;28;20250;-61
2022/07/29 02:24:43;;;;;;;2.10;1.98;;;;;;;;;;2076396;28;20174;-62
2022/07/29 02:25:43;;;;;;;4.63;2.20;;;;;;;;;;2075148;28;20303;-61
2022/07/29 02:26:44;;;;;;;4.97;2.20;;;;;;;;;;2078051;28;20169;-59
2022/07/29 02:27:46;;;;;;;1.95;1.85;;;;;;;;;;2076954;28;20713;-61
2022/07/29 02:28:48;;;;;;;2.25;2.15;;;;;;;;;;2078369;28;20169;-62
2022/07/29 02:29:50;;;;;;;3.28;2.10;;;;;;;;;;2080391;28;20477;-61
2022/07/29 02:30:51;;;;;;;3.75;2.30;;;;;;;;;;2078797;28;20568;-61
2022/07/29 02:31:53;;;;;;;2.20;2.10;;;;;;;;;;2068617;28;20630;-62
2022/07/29 02:32:53;;;;;;;4.30;2.10;;;;;;;;;;2072078;28;20747;-60
2022/07/29 02:33:54;;;;;;;3.83;2.40;;;;;;;;;;2076555;28;20229;-60
2022/07/29 02:34:55;;;;;;;2.58;2.08;;;;;;;;;;2078836;28;20164;-60
2022/07/29 02:35:56;;;;;;;2.60;2.10;;;;;;;;;;2076658;28;20172;-62
2022/07/29 02:36:57;;;;;;;3.35;2.40;;;;;;;;;;2079370;28;20196;-61
2022/07/29 02:39:17;;;;;;;3.42;2.28;;;;;;;;;;2078092;28;20165;-59
2022/07/29 02:40:18;;;;;;;3.60;2.20;;;;;;;;;;2078207;28;20215;-62
2022/07/29 02:41:27;;;;;;;2.78;1.88;;;;;;;;;;2069480;28;20207;-60
2022/07/29 02:42:28;;;;;;;2.60;2.38;;;;;;;;;;2062619;28;20175;-58
2022/07/29 02:43:30;;;;;;;3.80;2.63;;;;;;;;;;2071358;28;20722;-62
2022/07/29 02:44:32;;;;;;;2.30;2.20;;;;;;;;;;2077324;28;20164;-61
2022/07/29 02:45:34;;;;;;;2.20;2.00;;;;;;;;;;2080293;28;20318;-63
2022/07/29 02:46:35;;;;;;;3.83;2.22;;;;;;;;;;2079046;28;20230;-62
2022/07/29 02:47:43;;;;;;;4.53;2.10;;;;;;;;;;2080171;28;20180;-61
2022/07/29 02:48:51;;;;;;;3.83;2.08;;;;;;;;;;2076722;28;20189;-61
2022/07/29 02:49:52;;;;;;;4.63;2.13;;;;;;;;;;2078856;28;20188;-60
2022/07/29 02:50:57;;;;;;;2.88;2.10;;;;;;;;;;2080200;28;20204;-63
2022/07/29 02:51:59;;;;;;;3.20;2.38;;;;;;;;;;2078034;28;20168;-61
2022/07/29 02:53:07;;;;;;;2.20;2.00;;;;;;;;;;2072471;28;20184;-62
2022/07/29 02:54:09;;;;;;;2.75;2.45;;;;;;;;;;2067657;28;20173;-61
2022/07/29 02:55:28;;;;;;;4.00;2.33;;;;;;;;;;2079736;28;20168;-60
2022/07/29 02:56:34;;;;;;;3.17;2.03;;;;;;;;;;2076061;28;20259;-62
2022/07/29 02:57:38;;;;;;;4.70;2.20;;;;;;;;;;2078027;28;20157;-60
2022/07/29 02:58:40;;;;;;;2.38;2.20;;;;;;;;;;2078932;28;20164;-60
2022/07/29 02:59:42;;;;;;;2.30;1.88;;;;;;;;;;2078252;28;20291;-61
2022/07/29 03:00:42;;;;;;;2.72;2.00;;;;;;;;;;2074848;28;20693;-62
2022/07/29 03:01:43;;;;;;;3.13;2.50;;;;;;;;;;2078794;28;20172;-62
2022/07/29 03:02:44;;;;;;;2.13;1.92;;;;;;;;;;2079981;28;20177;-62
2022/07/29 03:03:46;;;;;;;2.60;1.98;;;;;;;;;;2079238;28;20161;-62
2022/07/29 03:04:48;;;;;;;2.33;2.10;;;;;;;;;;2076322;28;20251;-63
2022/07/29 03:05:49;;;;;;;4.22;2.30;;;;;;;;;;2068406;28;20691;-61
2022/07/29 03:06:50;;;;;;;4.25;2.30;;;;;;;;;;2068651;28;20185;-62
2022/07/29 03:07:58;;;;;;;2.42;2.22;;;;;;;;;;2069666;28;20185;-61
2022/07/29 03:08:59;;;;;;;4.55;2.00;;;;;;;;;;2072275;28;20193;-63
2022/07/29 03:10:00;;;;;;;4.55;2.53;;;;;;;;;;2076803;28;20235;-60
2022/07/29 03:11:01;;;;;;;2.90;2.15;;;;;;;;;;2079248;28;20266;-62
2022/07/29 03:12:03;;;;;;;2.50;2.30;;;;;;;;;;2074752;28;20172;-62
2022/07/29 03:13:04;;;;;;;4.55;2.63;;;;;;;;;;2068516;28;20186;-60
2022/07/29 03:14:05;;;;;;;2.40;2.00;;;;;;;;;;2066068;28;20297;-61
2022/07/29 03:15:06;;;;;;;6.43;2.53;;;;;;;;;;2069258;28;20173;-60
2022/07/29 03:16:07;;;;;;;3.42;2.42;;;;;;;;;;2070298;28;20181;-60
2022/07/29 03:17:09;;;;;;;1.85;1.75;;;;;;;;;;2078914;28;20204;-61
2022/07/29 03:18:09;;;;;;;2.40;2.20;;;;;;;;;;2078454;28;20260;-61
2022/07/29 03:19:10;;;;;;;3.28;2.13;;;;;;;;;;2078482;28;20177;-63
2022/07/29 03:20:12;;;;;;;2.50;2.30;;;;;;;;;;2075830;28;20185;-60
2022/07/29 03:21:12;;;;;;;3.03;2.10;;;;;;;;;;2076605;28;20819;-59
2022/07/29 03:22:13;;;;;;;3.45;2.30;;;;;;;;;;2078053;28;20194;-61
2022/07/29 03:23:18;;;;;;;4.65;2.25;;;;;;;;;;2069493;28;20173;-62
2022/07/29 03:24:25;;;;;;;2.28;2.08;;;;;;;;;;2070317;28;20182;-62
2022/07/29 03:25:27;;;;;;;2.30;2.10;;;;;;;;;;2075680;28;20227;-62
2022/07/29 03:26:27;;;;;;;5.53;2.40;;;;;;;;;;2077374;28;20169;-63
2022/07/29 03:27:28;;;;;;;2.50;2.30;;;;;;;;;;2070122;28;20201;-61
2022/07/29 03:28:29;;;;;;;2.28;2.17;;;;;;;;;;2065589;28;20197;-62
2022/07/29 03:29:29;;;;;;;2.40;2.17;;;;;;;;;;2077803;28;20215;-61
2022/07/29 03:30:30;;;;;;;3.95;2.13;;;;;;;;;;2075567;28;20172;-61
2022/07/29 03:31:30;;;;;;;2.13;2.00;;;;;;;;;;2076307;28;20328;-59
2022/07/29 03:32:31;;;;;;;3.70;2.10;;;;;;;;;;2074127;28;20280;-62
2022/07/29 03:33:31;;;;;;;2.30;2.20;;;;;;;;;;2073715;28;20184;-63
2022/07/29 03:34:31;;;;;;;2.38;2.08;;;;;;;;;;2075410;28;20180;-61
2022/07/29 03:35:32;;;;;;;2.80;2.47;;;;;;;;;;2076651;28;20431;-63
2022/07/29 03:36:32;;;;;;;2.95;2.13;;;;;;;;;;2069059;28;20209;-59
2022/07/29 03:37:33;;;;;;;3.20;1.90;;;;;;;;;;2068321;28;20605;-60
2022/07/29 03:38:35;;;;;;;2.25;2.10;;;;;;;;;;2077737;28;20187;-61
2022/07/29 03:39:38;;;;;;;2.30;2.20;;;;;;;;;;2078646;28;20189;-61
2022/07/29 03:40:44;;;;;;;3.63;2.47;;;;;;;;;;2068305;28;20173;-61
2022/07/29 03:41:47;;;;;;;6.00;2.00;;;;;;;;;;2070936;28;20270;-61
2022/07/29 03:42:48;;;;;;;3.20;2.00;;;;;;;;;;2078421;28;20168;-61
2022/07/29 03:43:49;;;;;;;2.28;2.08;;;;;;;;;;2069022;28;20236;-62
2022/07/29 03:44:50;;;;;;;2.03;1.88;;;;;;;;;;2068572;28;20165;-60
2022/07/29 03:45:52;;;;;;;2.30;2.10;;;;;;;;;;2067395;28;20561;-63
2022/07/29 03:46:54;;;;;;;2.42;2.15;;;;;;;;;;2069614;28;20630;-62
2022/07/29 03:47:59;;;;;;;3.10;2.42;;;;;;;;;;2077652;28;20172;-62
2022/07/29 03:49:00;;;;;;;3.13;2.00;;;;;;;;;;2081777;28;20168;-60
2022/07/29 03:50:04;;;;;;;3.70;2.28;;;;;;;;;;2081663;28;20685;-61
2022/07/29 03:51:05;;;;;;;2.15;2.05;;;;;;;;;;2068935;28;20170;-62
2022/07/29 03:52:06;;;;;;;2.20;2.00;;;;;;;;;;2068159;28;20185;-62
2022/07/29 03:53:07;;;;;;;2.90;2.20;;;;;;;;;;2079728;28;20224;-63
2022/07/29 03:54:07;;;;;;;3.78;2.00;;;;;;;;;;2067209;28;20189;-63
2022/07/29 03:55:08;;;;;;;2.53;2.33;;;;;;;;;;2067263;28;20216;-62
2022/07/29 03:56:09;;;;;;;2.30;2.13;;;;;;;;;;2075015;28;20648;-62
2022/07/29 03:57:11;;;;;;;2.65;2.30;;;;;;;;;;2076536;28;20208;-61
2022/07/29 03:58:12;;;;;;;2.95;2.28;;;;;;;;;;2076395;28;20206;-62
2022/07/29 03:59:13;;;;;;;3.67;1.95;;;;;;;;;;2076966;28;20598;-62
2022/07/29 04:00:15;;;;;;;2.33;2.20;;;;;;;;;;2075217;28;20173;-60
2022/07/29 04:01:17;;;;;;;4.22;2.38;;;;;;;;;;2073708;28;20204;-61
2022/07/29 04:02:18;;;;;;;5.20;2.38;;;;;;;;;;2067514;28;20185;-62
2022/07/29 04:03:18;;;;;;;2.50;2.25;;;;;;;;;;2067019;28;20194;-62
2022/07/29 04:04:19;;;;;;;3.00;2.33;;;;;;;;;;2078525;28;20516;-61
2022/07/29 04:05:19;;;;;;;3.10;1.95;;;;;;;;;;2078772;28;20169;-63
2022/07/29 04:06:20;;;;;;;2.42;2.22;;;;;;;;;;2073555;28;20183;-62
2022/07/29 04:07:20;;;;;;;3.20;2.10;;;;;;;;;;2073397;28;20311;-61
2022/07/29 04:08:20;;;;;;;3.10;2.22;;;;;;;;;;2065678;28;20181;-62
2022/07/29 04:09:21;;;;;;;3.30;2.10;;;;;;;;;;2068491;28;20199;-61
2022/07/29 04:10:22;;;;;;;3.30;2.30;;;;;;;;;;2073809;28;20180;-62
2022/07/29 04:11:23;;;;;;;9.10;2.90;;;;;;;;;;2078555;28;20165;-62
2022/07/29 04:12:23;;;;;;;3.75;2.10;;;;;;;;;;2078188;28;20173;-62
2022/07/29 04:13:24;;;;;;;6.25;2.55;;;;;;;;;;2068264;28;20220;-62
2022/07/29 04:14:24;;;;;;;4.07;2.10;;;;;;;;;;2069131;28;20176;-62
2022/07/29 04:15:25;;;;;;;2.67;2.25;;;;;;;;;;2076160;28;20169;-63
2022/07/29 04:16:25;;;;;;;3.97;2.30;;;;;;;;;;2073654;28;20173;-61
2022/07/29 04:17:25;;;;;;;2.30;2.10;;;;;;;;;;2077117;28;20303;-60
2022/07/29 04:18:26;;;;;;;3.15;2.88;;;;;;;;;;2069560;28;20173;-61
2022/07/29 04:19:27;;;;;;;2.72;2.50;;;;;;;;;;2068359;28;20235;-62
2022/07/29 04:20:27;;;;;;;2.50;2.30;;;;;;;;;;2067563;28;20166;-62
2022/07/29 04:21:27;;;;;;;3.10;2.50;;;;;;;;;;2069743;28;20173;-62
2022/07/29 04:22:28;;;;;;;4.07;2.08;;;;;;;;;;2075903;28;20269;-62
2022/07/29 04:23:32;;;;;;;2.97;2.17;;;;;;;;;;2077129;28;20544;-61
2022/07/29 04:24:32;;;;;;;2.83;2.30;;;;;;;;;;2076839;28;20540;-62
2022/07/29 04:25:32;;;;;;;4.78;2.55;;;;;;;;;;2077581;28;20163;-61
2022/07/29 04:26:33;;;;;;;2.85;2.03;;;;;;;;;;2075194;28;20180;-61
2022/07/29 04:27:34;;;;;;;3.90;2.50;;;;;;;;;;2076858;28;20177;-61
2022/07/29 04:28:34;;;;;;;5.32;3.20;;;;;;;;;;2076433;28;20247;-61
2022/07/29 04:29:35;;;;;;;3.67;2.60;;;;;;;;;;2069703;28;20204;-62
2022/07/29 04:30:36;;;;;;;5.18;3.50;;;;;;;;;;2062662;28;20596;-61
2022/07/29 04:31:36;;;;;;;8.38;4.53;;;;;;;;;;2063460;28;20539;-61
2022/07/29 04:32:37;;;;;;;2.53;2.20;;;;;;;;;;2076681;28;20180;-61
2022/07/29 04:33:37;;;;;;;4.25;2.65;;;;;;;;;;2077452;28;20188;-62
2022/07/29 04:34:37;;;;;;;3.10;2.20;;;;;;;;;;2078307;28;20180;-62
2022/07/29 04:35:38;;;;;;;5.07;3.50;;;;;;;;;;2075479;28;20619;-61
2022/07/29 04:36:38;;;;;;;2.50;2.17;;;;;;;;;;2074272;28;20216;-60
2022/07/29 04:37:39;;;;;;;4.80;2.83;;;;;;;;;;2072954;28;20196;-62
2022/07/29 04:38:39;;;;;;;4.88;4.40;;;;;;;;;;2075602;28;20187;-63
2022/07/29 04:39:39;;;;;;;3.20;3.00;;;;;;;;;;2076086;28;20220;-60
2022/07/29 04:40:40;;;;;;;4.80;3.58;;;;;;;;;;2076208;28;20212;-61
2022/07/29 04:41:40;;;;;;;3.20;2.70;;;;;;;;;;2072841;28;20232;-64
2022/07/29 04:42:40;;;;;;;2.60;2.38;;;;;;;;;;2074464;28;20181;-62
2022/07/29 04:43:41;;;;;;;5.90;3.28;;;;;;;;;;2076480;28;20169;-62
2022/07/29 04:44:41;;;;;;;3.88;3.10;;;;;;;;;;2075521;28;20191;-61
2022/07/29 04:45:41;;;;;;;6.57;3.40;;;;;;;;;;2079636;28;20592;-61
2022/07/29 04:46:42;;;;;;;2.42;2.30;;;;;;;;;;2073784;28;20192;-60
2022/07/29 04:47:42;;;;;;;3.15;2.30;;;;;;;;;;2078200;28;20247;-62
2022/07/29 04:48:44;;;;;;;3.97;2.70;;;;;;;;;;2070454;28;20630;-63
2022/07/29 04:49:45;;;;;;;2.58;2.38;;;;;;;;;;2069911;28;20212;-63
2022/07/29 04:50:45;;;;;;;3.85;3.20;;;;;;;;;;2078776;28;20199;-61
2022/07/29 04:51:45;;;;;;;4.38;2.30;;;;;;;;;;2073589;28;20188;-64
2022/07/29 04:52:46;;;;;;;3.17;2.50;;;;;;;;;;2078103;28;20166;-61
2022/07/29 04:53:46;;;;;;;2.10;2.00;;;;;;;;;;2077609;28;20184;-62
2022/07/29 04:54:46;;;;;;;2.55;2.15;;;;;;;;;;2069316;28;20231;-62
2022/07/29 04:55:47;;;;;;;2.45;2.25;;;;;;;;;;2067658;28;20729;-63
2022/07/29 04:56:47;;;;;;;4.35;2.00;;;;;;;;;;2078767;28;20686;-62
2022/07/29 04:57:49;;;;;;;4.20;3.17;;;;;;;;;;2076084;28;20200;-62
2022/07/29 04:58:49;;;;;;;1.95;1.85;;;;;;;;;;2069611;28;20256;-62
2022/07/29 04:59:49;;;;;;;7.75;4.35;;;;;;;;;;2067808;28;20696;-62
2022/07/29 05:00:50;;;;;;;4.40;2.72;;;;;;;;;;2077098;28;20223;-61
2022/07/29 05:01:50;;;;;;;4.07;3.45;;;;;;;;;;2076188;28;20189;-62
2022/07/29 05:02:51;;;;;;;2.58;2.38;;;;;;;;;;2069345;28;20177;-62
2022/07/29 05:03:51;;;;;;;3.08;2.30;;;;;;;;;;2068761;28;20208;-62
2022/07/29 05:04:51;;;;;;;2.20;2.10;;;;;;;;;;2077005;28;20642;-62
2022/07/29 05:05:52;;;;;;;3.85;2.78;;;;;;;;;;2078111;28;20597;-61
2022/07/29 05:06:52;;;;;;;4.82;4.40;;;;;;;;;;2077352;28;20176;-63
2022/07/29 05:07:53;;;;;;;8.27;7.47;;;;;;;;;;2077938;28;20170;-62
2022/07/29 05:08:53;;;;;;;7.13;5.15;;;;;;;;;;2073390;28;20181;-61
2022/07/29 05:09:56;;;;;;;4.70;2.85;;;;;;;;;;2076932;28;20199;-62
2022/07/29 05:10:56;;;;;;;4.97;3.80;;;;;;;;;;2077358;28;20182;-62
2022/07/29 05:11:57;;;;;;;2.30;2.10;;;;;;;;;;2075758;28;20184;-61
2022/07/29 05:12:57;;;;;;;4.10;3.70;;;;;;;;;;2075773;28;20653;-61
2022/07/29 05:13:58;;;;;;;2.88;2.38;;;;;;;;;;2074615;28;20180;-61
2022/07/29 05:14:58;;;;;;;5.55;3.67;;;;;;;;;;2075542;28;20208;-62
2022/07/29 05:15:58;;;;;;;4.35;2.80;;;;;;;;;;2074984;28;20226;-63
2022/07/29 05:17:01;;;;;;;2.63;2.45;;;;;;;;;;2078741;28;20668;-63
2022/07/29 05:18:02;;;;;;;4.80;3.88;;;;;;;;;;2074519;28;20184;-63
2022/07/29 05:19:02;;;;;;;3.97;2.63;;;;;;;;;;2078675;28;20178;-60
2022/07/29 05:20:03;;;;;;;5.38;4.22;;;;;;;;;;2087145;23;20229;-63
2022/07/29 05:21:03;;;;;;;6.97;6.22;;;;;;;;;;2070495;28;20194;-63
2022/07/29 05:22:04;;;;;;;4.43;3.13;;;;;;;;;;2073831;28;20251;-63
2022/07/29 05:23:04;;;;;;;3.25;2.95;;;;;;;;;;2066975;28;20197;-63
2022/07/29 05:24:04;;;;;;;2.95;2.53;;;;;;;;;;2055577;28;20193;-62
2022/07/29 05:25:05;;;;;;;4.40;2.72;;;;;;;;;;2060525;28;20274;-63
2022/07/29 05:26:05;;;;;;;3.60;3.30;;;;;;;;;;2075068;28;20614;-63
2022/07/29 05:27:06;;;;;;;4.38;3.97;;;;;;;;;;2084016;28;20180;-63
2022/07/29 05:28:06;;;;;;;3.28;2.60;;;;;;;;;;2083413;28;20199;-64
2022/07/29 05:29:06;;;;;;;5.25;4.75;;;;;;;;;;2083577;28;20177;-65
2022/07/29 05:30:07;;;;;;;5.13;3.90;;;;;;;;;;2078500;28;20180;-62
2022/07/29 05:31:07;;;;;;;3.00;2.72;;;;;;;;;;2075637;28;20642;-62
2022/07/29 05:32:08;;;;;;;5.53;3.85;;;;;;;;;;2077966;28;20244;-65
2022/07/29 05:33:08;;;;;;;5.57;4.82;;;;;;;;;;2076251;28;20173;-64
2022/07/29 05:34:08;;;;;;;2.85;2.30;;;;;;;;;;2068343;28;20235;-60
2022/07/29 05:35:09;;;;;;;6.95;6.25;;;;;;;;;;2067734;28;20723;-63
2022/07/29 05:36:09;;;;;;;9.60;8.25;;;;;;;;;;2077711;28;20180;-64
2022/07/29 05:37:10;;;;;;;12.35;10.93;;;;;;;;;;2076200;28;20288;-65
2022/07/29 05:38:10;;;;;;;11.85;9.60;;;;;;;;;;2072481;28;20169;-64
2022/07/29 05:39:11;;;;;;;4.68;4.10;;;;;;;;;;2075656;28;20165;-64
2022/07/29 05:40:11;;;;;;;5.18;3.67;;;;;;;;;;2075561;28;20215;-63
2022/07/29 05:41:11;;;;;;;4.30;3.72;;;;;;;;;;2077164;28;20627;-66
2022/07/29 05:42:12;;;;;;;6.82;5.10;;;;;;;;;;2076929;28;20165;-65
2022/07/29 05:43:12;;;;;;;5.70;2.88;;;;;;;;;;2077499;28;20279;-65
2022/07/29 05:44:13;;;;;;;4.38;2.80;;;;;;;;;;2075632;28;20188;-64
2022/07/29 05:45:13;;;;;;;2.50;2.30;;;;;;;;;;2080087;28;20535;-65
2022/07/29 05:46:14;;;;;;;3.50;3.17;;;;;;;;;;2068122;28;20264;-62
2022/07/29 05:47:14;;;;;;;2.45;2.33;;;;;;;;;;2068682;28;20239;-67
2022/07/29 05:48:14;;;;;;;4.15;2.33;;;;;;;;;;2077008;28;20169;-63
2022/07/29 05:49:15;;;;;;;3.55;2.45;;;;;;;;;;2077493;28;20215;-65
2022/07/29 05:50:15;;;;;;;4.32;3.42;;;;;;;;;;2077601;28;20604;-67
2022/07/29 05:51:16;;;;;;;3.45;2.72;;;;;;;;;;2078927;28;20248;-64
2022/07/29 05:52:16;;;;;;;4.90;3.40;;;;;;;;;;2077581;28;20164;-64
2022/07/29 05:53:16;;;;;;;4.88;2.67;;;;;;;;;;2068970;28;20610;-63
2022/07/29 05:54:16;;;;;;;3.58;2.20;;;;;;;;;;2066784;28;20649;-65
2022/07/29 05:55:17;;;;;;;4.18;2.65;;;;;;;;;;2076075;28;20180;-65
2022/07/29 05:56:17;;;;;;;2.90;2.60;;;;;;;;;;2076325;28;20172;-64
2022/07/29 05:57:21;;;;;;;3.78;2.58;;;;;;;;;;2074933;28;20196;-65
2022/07/29 05:58:22;;;;;;;3.45;2.08;;;;;;;;;;2070614;28;20242;-64
2022/07/29 05:59:22;;;;;;;3.72;2.30;;;;;;;;;;2070378;28;20769;-64
2022/07/29 06:00:22;;;;;;;2.58;2.38;;;;;;;;;;2076497;28;20205;-65
2022/07/29 06:01:23;;;;;;;2.63;2.42;;;;;;;;;;2075781;28;20172;-65
2022/07/29 06:02:23;;;;;;;4.95;2.53;;;;;;;;;;2073393;28;20630;-66
2022/07/29 06:03:23;;;;;;;3.50;2.25;;;;;;;;;;2077831;28;20247;-64
2022/07/29 06:04:24;;;;;;;2.47;2.20;;;;;;;;;;2072941;28;20357;-65
2022/07/29 06:05:24;;;;;;;10.35;6.75;;;;;;;;;;2070817;28;20628;-65
2022/07/29 06:06:24;;;;;;;7.20;4.65;;;;;;;;;;2075080;28;20180;-64
2022/07/29 06:07:25;;;;;;;7.30;5.68;;;;;;;;;;2071826;28;20234;-59
2022/07/29 06:08:25;;;;;;;2.47;2.28;;;;;;;;;;2071355;28;20248;-64
2022/07/29 06:09:25;;;;;;;4.75;4.35;;;;;;;;;;2071761;28;20272;-64
2022/07/29 06:10:26;;;;;;;5.97;4.78;;;;;;;;;;2072914;28;20686;-65
2022/07/29 06:11:27;;;;;;;5.72;2.78;;;;;;;;;;2073754;28;20185;-62
2022/07/29 06:12:27;;;;;;;3.75;3.38;;;;;;;;;;2073809;28;20180;-65